createdAt,value
2023-03-16T00:01:08.710Z,9.27
2023-03-16T00:03:37.325Z,9.28
2023-03-16T00:06:08.020Z,9.27
2023-03-16T00:08:37.206Z,9.28
2023-03-16T00:11:05.687Z,9.26
2023-03-16T00:13:34.223Z,9.27
2023-03-16T00:16:04.892Z,9.27
2023-03-16T00:18:39.101Z,9.29
2023-03-16T00:21:09.417Z,9.28
2023-03-16T00:23:38.192Z,9.28
2023-03-16T00:26:09.179Z,9.31
2023-03-16T00:28:38.880Z,9.29
2023-03-16T00:31:09.510Z,9.28
2023-03-16T00:33:37.878Z,9.28
2023-03-16T00:36:11.556Z,9.27
2023-03-16T00:38:45.614Z,9.26
2023-03-16T00:41:15.794Z,9.28
2023-03-16T00:43:45.569Z,9.27
2023-03-16T00:46:16.414Z,9.30
2023-03-16T00:48:47.710Z,9.29
2023-03-16T00:51:19.301Z,9.29
2023-03-16T00:53:48.228Z,9.30
2023-03-16T00:56:18.175Z,9.29
2023-03-16T00:58:46.646Z,9.29
2023-03-16T01:01:16.381Z,9.28
2023-03-16T01:03:45.474Z,9.32
2023-03-16T01:06:17.329Z,9.32
2023-03-16T01:08:47.501Z,9.31
2023-03-16T01:11:25.484Z,9.33
2023-03-16T01:13:55.493Z,9.31
2023-03-16T01:16:24.434Z,9.33
2023-03-16T01:18:53.962Z,9.32
2023-03-16T01:21:23.389Z,9.32
2023-03-16T01:23:56.975Z,9.34
2023-03-16T01:26:25.608Z,9.34
2023-03-16T01:28:55.054Z,9.36
2023-03-16T01:31:24.217Z,9.33
2023-03-16T01:33:53.434Z,9.32
2023-03-16T01:36:25.239Z,9.37
2023-03-16T01:39:10.794Z,9.35
2023-03-16T01:41:45.920Z,9.35
2023-03-16T01:44:16.202Z,9.35
2023-03-16T01:46:45.017Z,9.37
2023-03-16T01:49:15.444Z,9.38
2023-03-16T01:51:47.949Z,9.40
2023-03-16T01:54:27.325Z,9.37
2023-03-16T01:57:04.770Z,9.39
2023-03-16T01:59:37.179Z,9.40
2023-03-16T02:02:06.343Z,9.39
2023-03-16T02:04:44.784Z,9.41
2023-03-16T02:07:18.575Z,9.41
2023-03-16T02:09:53.675Z,9.42
2023-03-16T02:12:23.756Z,9.41
2023-03-16T02:14:55.871Z,9.44
2023-03-16T02:17:27.495Z,9.43
2023-03-16T02:20:14.111Z,9.46
2023-03-16T02:22:45.395Z,9.49
2023-03-16T02:25:20.291Z,9.48
2023-03-16T02:27:57.728Z,9.46
2023-03-16T02:30:29.093Z,9.45
2023-03-16T02:33:02.910Z,9.53
2023-03-16T02:35:31.398Z,9.48
2023-03-16T02:38:00.401Z,9.49
2023-03-16T02:40:35.202Z,9.45
2023-03-16T02:43:11.513Z,9.51
2023-03-16T02:45:50.002Z,9.48
2023-03-16T02:48:24.782Z,9.51
2023-03-16T02:50:55.721Z,9.49
2023-03-16T02:53:24.858Z,9.44
2023-03-16T02:55:54.514Z,9.51
2023-03-16T02:58:23.189Z,9.53
2023-03-16T03:00:53.701Z,9.44
2023-03-16T03:03:22.575Z,9.48
2023-03-16T03:05:50.974Z,9.50
2023-03-16T03:08:20.778Z,9.49
2023-03-16T03:10:49.791Z,9.48
2023-03-16T03:13:18.144Z,9.52
2023-03-16T03:15:47.060Z,9.46
2023-03-16T03:18:17.460Z,9.45
2023-03-16T03:20:46.318Z,9.49
2023-03-16T03:23:15.577Z,9.48
2023-03-16T03:25:44.319Z,9.49
2023-03-16T03:28:13.688Z,9.51
2023-03-16T03:30:42.934Z,9.52
2023-03-16T03:33:11.880Z,9.50
2023-03-16T03:35:43.386Z,9.51
2023-03-16T03:38:12.407Z,9.49
2023-03-16T03:40:45.463Z,9.46
2023-03-16T03:43:14.957Z,9.44
2023-03-16T03:45:46.477Z,9.42
2023-03-16T03:48:15.857Z,9.43
2023-03-16T03:50:45.980Z,9.41
2023-03-16T03:53:40.289Z,9.41
2023-03-16T03:56:31.841Z,9.42
2023-03-16T03:59:00.363Z,9.38
2023-03-16T04:01:55.043Z,9.38
2023-03-16T04:04:26.330Z,9.38
2023-03-16T04:06:56.648Z,9.31
2023-03-16T04:09:25.299Z,9.37
2023-03-16T04:11:53.854Z,9.34
2023-03-16T04:14:22.249Z,9.34
2023-03-16T04:16:51.108Z,9.31
2023-03-16T04:19:20.074Z,9.33
2023-03-16T04:21:48.967Z,9.35
2023-03-16T04:24:22.510Z,9.32
2023-03-16T04:26:51.345Z,9.35
2023-03-16T04:29:19.985Z,9.33
2023-03-16T04:31:49.820Z,9.34
2023-03-16T04:34:19.073Z,9.33
2023-03-16T04:36:47.150Z,9.28
2023-03-16T04:39:15.597Z,9.30
2023-03-16T04:41:45.202Z,9.32
2023-03-16T04:44:19.326Z,9.37
2023-03-16T04:46:47.869Z,9.36
2023-03-16T04:49:16.097Z,9.41
2023-03-16T04:51:46.486Z,9.43
2023-03-16T04:54:18.806Z,9.40
2023-03-16T04:56:48.925Z,9.45
2023-03-16T04:59:35.616Z,9.48
2023-03-16T05:02:17.018Z,9.48
2023-03-16T05:04:45.533Z,9.49
2023-03-16T05:07:14.017Z,9.43
2023-03-16T05:09:47.133Z,9.47
2023-03-16T05:12:17.470Z,9.45
2023-03-16T05:14:47.286Z,9.42
2023-03-16T05:17:37.206Z,9.42
2023-03-16T05:20:08.476Z,9.40
2023-03-16T05:22:42.417Z,9.38
2023-03-16T05:25:16.772Z,9.33
2023-03-16T05:27:54.086Z,9.31
2023-03-16T05:30:31.450Z,9.25
2023-03-16T05:33:03.293Z,9.27
2023-03-16T05:35:32.600Z,9.24
2023-03-16T05:38:06.332Z,9.18
2023-03-16T05:40:37.990Z,9.15
2023-03-16T05:43:17.006Z,9.14
2023-03-16T05:45:50.770Z,9.12
2023-03-16T05:48:21.359Z,9.13
2023-03-16T05:50:55.155Z,9.10
2023-03-16T05:53:29.644Z,9.08
2023-03-16T05:56:06.182Z,9.09
2023-03-16T05:58:39.076Z,9.08
2023-03-16T06:01:10.806Z,9.08
2023-03-16T06:03:39.334Z,9.06
2023-03-16T06:06:10.135Z,9.06
2023-03-16T06:08:50.015Z,9.05
2023-03-16T06:11:20.435Z,9.07
2023-03-16T06:13:50.350Z,9.06
2023-03-16T06:16:19.599Z,9.05
2023-03-16T06:18:48.299Z,9.04
2023-03-16T06:21:16.731Z,9.02
2023-03-16T06:23:46.848Z,9.00
2023-03-16T06:26:16.153Z,9.00
2023-03-16T06:28:46.846Z,8.98
2023-03-16T06:31:16.933Z,8.97
2023-03-16T06:33:47.624Z,8.99
2023-03-16T06:36:16.041Z,8.99
2023-03-16T06:38:48.605Z,9.00
2023-03-16T06:41:30.425Z,8.99
2023-03-16T06:43:58.973Z,8.94
2023-03-16T06:46:29.820Z,8.97
2023-03-16T06:49:01.274Z,8.94
2023-03-16T06:51:29.809Z,8.95
2023-03-16T06:53:58.559Z,8.96
2023-03-16T06:56:28.081Z,8.98
2023-03-16T06:58:57.751Z,8.99
2023-03-16T07:01:26.159Z,9.00
2023-03-16T07:03:55.968Z,8.94
2023-03-16T07:06:29.835Z,9.00
2023-03-16T07:08:58.444Z,8.97
2023-03-16T07:11:26.984Z,8.97
2023-03-16T07:13:55.094Z,8.99
2023-03-16T07:16:24.590Z,8.99
2023-03-16T07:18:55.434Z,9.00
2023-03-16T07:21:24.136Z,9.01
2023-03-16T07:23:53.260Z,8.99
2023-03-16T07:26:26.220Z,9.00
2023-03-16T07:29:01.204Z,9.03
2023-03-16T07:31:32.576Z,9.07
2023-03-16T07:34:05.469Z,9.09
2023-03-16T07:36:44.535Z,9.11
2023-03-16T07:39:14.653Z,9.12
2023-03-16T07:41:44.022Z,9.12
2023-03-16T07:44:17.615Z,9.15
2023-03-16T07:46:50.014Z,9.17
2023-03-16T07:49:20.880Z,9.17
2023-03-16T07:51:51.827Z,9.18
2023-03-16T07:54:24.748Z,9.21
2023-03-16T07:56:53.275Z,9.22
2023-03-16T07:59:31.568Z,9.24
2023-03-16T08:02:00.578Z,9.28
2023-03-16T08:04:30.515Z,9.28
2023-03-16T08:07:02.441Z,9.32
2023-03-16T08:09:45.434Z,9.34
2023-03-16T08:12:18.959Z,9.36
2023-03-16T08:14:48.105Z,9.37
2023-03-16T08:17:20.466Z,9.42
2023-03-16T08:19:51.894Z,9.44
2023-03-16T08:22:22.398Z,9.49
2023-03-16T08:24:50.902Z,9.54
2023-03-16T08:27:20.615Z,9.59
2023-03-16T08:29:54.347Z,9.58
2023-03-16T08:32:26.461Z,9.63
2023-03-16T08:34:57.375Z,9.64
2023-03-16T08:37:27.470Z,9.68
2023-03-16T08:39:58.197Z,9.70
2023-03-16T08:42:28.934Z,9.77
2023-03-16T08:45:08.112Z,9.86
2023-03-16T08:47:36.793Z,9.86
2023-03-16T08:50:08.581Z,9.93
2023-03-16T08:52:37.862Z,10.01
2023-03-16T08:55:07.786Z,10.04
2023-03-16T08:57:36.477Z,10.02
2023-03-16T09:00:12.854Z,10.03
2023-03-16T09:02:41.763Z,10.00
2023-03-16T09:05:15.033Z,10.01
2023-03-16T09:07:44.172Z,10.01
2023-03-16T09:10:16.502Z,10.06
2023-03-16T09:12:45.081Z,10.12
2023-03-16T09:15:15.080Z,10.31
2023-03-16T09:17:45.282Z,10.57
2023-03-16T09:20:26.386Z,10.77
2023-03-16T09:22:56.713Z,11.05
2023-03-16T09:25:26.268Z,11.30
2023-03-16T09:27:54.680Z,11.55
2023-03-16T09:30:23.296Z,11.80
2023-03-16T09:32:51.677Z,11.91
2023-03-16T09:35:21.623Z,12.15
2023-03-16T09:38:05.133Z,12.23
2023-03-16T09:40:34.242Z,12.14
2023-03-16T09:43:26.476Z,12.16
2023-03-16T09:46:05.677Z,12.07
2023-03-16T09:48:36.383Z,12.00
2023-03-16T09:51:09.771Z,11.95
2023-03-16T09:53:40.772Z,11.88
2023-03-16T09:56:13.724Z,11.82
2023-03-16T09:58:42.351Z,11.74
2023-03-16T10:01:19.144Z,11.71
2023-03-16T10:04:00.808Z,11.59
2023-03-16T10:06:31.402Z,11.46
2023-03-16T10:09:08.307Z,11.49
2023-03-16T10:11:41.299Z,11.46
2023-03-16T10:14:19.771Z,11.45
2023-03-16T10:16:51.694Z,11.50
2023-03-16T10:19:24.808Z,11.45
2023-03-16T10:21:58.139Z,11.47
2023-03-16T10:24:45.066Z,11.52
2023-03-16T10:27:21.852Z,11.64
2023-03-16T10:29:50.603Z,11.72
2023-03-16T10:32:20.273Z,11.78
2023-03-16T10:34:56.433Z,11.85
2023-03-16T10:37:28.393Z,11.99
2023-03-16T10:39:57.387Z,12.17
2023-03-16T10:42:27.247Z,12.25
2023-03-16T10:45:02.646Z,12.36
2023-03-16T10:47:33.794Z,12.24
2023-03-16T10:50:14.749Z,12.57
2023-03-16T10:52:48.202Z,12.56
2023-03-16T10:55:21.441Z,12.53
2023-03-16T10:57:52.004Z,12.51
2023-03-16T11:00:24.358Z,12.66
2023-03-16T11:02:55.512Z,12.56
2023-03-16T11:05:31.687Z,12.61
2023-03-16T11:08:09.561Z,12.75
2023-03-16T11:10:49.448Z,12.90
2023-03-16T11:13:22.788Z,12.94
2023-03-16T11:15:57.498Z,13.18
2023-03-16T11:18:32.799Z,13.32
2023-03-16T11:21:08.689Z,13.62
2023-03-16T11:23:42.343Z,13.51
2023-03-16T11:26:21.322Z,13.47
2023-03-16T11:28:54.628Z,13.49
2023-03-16T11:31:33.828Z,13.48
2023-03-16T11:34:02.967Z,13.68
2023-03-16T11:36:45.795Z,13.73
2023-03-16T11:39:28.489Z,13.67
2023-03-16T11:42:10.929Z,13.87
2023-03-16T11:44:47.479Z,14.07
2023-03-16T11:47:35.663Z,14.08
2023-03-16T11:50:16.228Z,14.60
2023-03-16T11:52:55.675Z,14.86
2023-03-16T11:55:36.081Z,14.90
2023-03-16T11:58:29.388Z,15.16
2023-03-16T12:01:07.548Z,15.55
2023-03-16T12:04:02.282Z,15.85
2023-03-16T12:06:41.636Z,15.94
2023-03-16T12:09:43.388Z,16.13
2023-03-16T12:12:27.171Z,16.15
2023-03-16T12:15:09.860Z,16.11
2023-03-16T12:17:40.978Z,15.88
2023-03-16T12:20:19.114Z,15.71
2023-03-16T12:22:51.666Z,15.36
2023-03-16T12:25:24.913Z,15.23
2023-03-16T12:27:58.479Z,15.26
2023-03-16T12:30:41.183Z,15.14
2023-03-16T12:33:18.052Z,14.89
2023-03-16T12:35:51.013Z,14.96
2023-03-16T12:38:34.773Z,14.94
2023-03-16T12:41:12.588Z,14.45
2023-03-16T12:43:57.728Z,14.38
2023-03-16T12:46:34.837Z,14.32
2023-03-16T12:49:06.175Z,14.27
2023-03-16T12:51:36.599Z,14.24
2023-03-16T12:54:06.259Z,14.05
2023-03-16T12:56:36.846Z,14.00
2023-03-16T12:59:10.199Z,13.89
2023-03-16T13:01:43.812Z,14.12
2023-03-16T13:04:16.099Z,14.40
2023-03-16T13:06:48.534Z,14.53
2023-03-16T13:09:21.711Z,14.55
2023-03-16T13:11:51.540Z,14.45
2023-03-16T13:14:38.289Z,14.52
2023-03-16T13:17:23.725Z,14.46
2023-03-16T13:20:30.900Z,14.37
2023-03-16T13:23:22.329Z,13.99
2023-03-16T13:26:07.435Z,14.04
2023-03-16T13:28:38.892Z,14.07
2023-03-16T13:31:23.644Z,14.03
2023-03-16T13:33:55.130Z,14.15
2023-03-16T13:36:25.713Z,14.06
2023-03-16T13:38:58.783Z,13.96
2023-03-16T13:41:27.304Z,13.99
2023-03-16T13:43:55.945Z,14.01
2023-03-16T13:46:30.625Z,13.89
2023-03-16T13:49:01.419Z,14.04
2023-03-16T13:51:32.142Z,14.30
2023-03-16T13:54:05.495Z,14.16
2023-03-16T13:56:35.189Z,14.20
2023-03-16T13:59:04.120Z,14.45
2023-03-16T14:01:34.496Z,14.32
2023-03-16T14:04:08.957Z,14.21
2023-03-16T14:06:38.719Z,14.13
2023-03-16T14:09:09.457Z,14.08
2023-03-16T14:11:37.767Z,13.99
2023-03-16T14:14:16.032Z,13.94
2023-03-16T14:16:45.890Z,13.90
2023-03-16T14:19:19.314Z,13.68
2023-03-16T14:21:48.351Z,13.53
2023-03-16T14:24:31.039Z,13.55
2023-03-16T14:27:11.293Z,13.52
2023-03-16T14:29:43.915Z,13.51
2023-03-16T14:32:28.181Z,13.37
2023-03-16T14:35:13.052Z,13.27
2023-03-16T14:37:42.484Z,13.19
2023-03-16T14:40:25.955Z,13.26
2023-03-16T14:42:56.131Z,13.16
2023-03-16T14:45:25.959Z,13.13
2023-03-16T14:47:55.764Z,12.93
2023-03-16T14:50:26.462Z,13.04
2023-03-16T14:52:57.516Z,12.94
2023-03-16T14:55:26.019Z,12.98
2023-03-16T14:57:54.487Z,13.03
2023-03-16T15:00:23.516Z,13.29
2023-03-16T15:02:59.808Z,13.31
2023-03-16T15:05:35.150Z,13.35
2023-03-16T15:08:06.102Z,13.24
2023-03-16T15:10:37.436Z,13.23
2023-03-16T15:13:16.950Z,13.26
2023-03-16T15:15:48.751Z,13.20
2023-03-16T15:18:18.475Z,13.38
2023-03-16T15:20:49.770Z,13.47
2023-03-16T15:23:18.637Z,13.74
2023-03-16T15:25:49.555Z,13.97
2023-03-16T15:28:19.817Z,13.98
2023-03-16T15:30:50.259Z,14.11
2023-03-16T15:33:20.378Z,14.17
2023-03-16T15:35:50.543Z,14.24
2023-03-16T15:38:23.989Z,14.21
2023-03-16T15:40:53.288Z,14.20
2023-03-16T15:43:24.687Z,14.15
2023-03-16T15:45:54.491Z,13.99
2023-03-16T15:48:25.591Z,13.96
2023-03-16T15:50:56.001Z,13.80
2023-03-16T15:53:31.309Z,13.71
2023-03-16T15:56:04.433Z,13.56
2023-03-16T15:58:35.493Z,13.63
2023-03-16T16:01:05.489Z,13.44
2023-03-16T16:03:35.576Z,13.57
2023-03-16T16:06:03.872Z,13.57
2023-03-16T16:08:32.259Z,13.25
2023-03-16T16:11:00.636Z,13.13
2023-03-16T16:13:43.537Z,13.06
2023-03-16T16:16:14.759Z,13.00
2023-03-16T16:18:45.008Z,12.94
2023-03-16T16:21:19.260Z,12.85
2023-03-16T16:23:47.952Z,12.98
2023-03-16T16:26:34.243Z,12.96
2023-03-16T16:29:14.602Z,12.72
2023-03-16T16:31:43.675Z,12.80
2023-03-16T16:34:17.335Z,12.85
2023-03-16T16:36:45.751Z,12.81
2023-03-16T16:39:14.054Z,12.74
2023-03-16T16:41:44.349Z,12.58
2023-03-16T16:44:18.581Z,12.59
2023-03-16T16:46:49.300Z,12.46
2023-03-16T16:49:22.628Z,12.36
2023-03-16T16:51:51.608Z,12.34
2023-03-16T16:54:21.492Z,12.37
2023-03-16T16:56:52.009Z,12.14
2023-03-16T16:59:21.989Z,12.08
2023-03-16T17:01:51.984Z,12.10
2023-03-16T17:04:24.855Z,12.03
2023-03-16T17:06:55.734Z,11.99
2023-03-16T17:09:24.999Z,11.96
2023-03-16T17:11:56.306Z,12.00
2023-03-16T17:14:27.686Z,12.05
2023-03-16T17:16:57.092Z,11.95
2023-03-16T17:19:28.798Z,11.93
2023-03-16T17:21:59.398Z,11.92
2023-03-16T17:24:28.877Z,11.93
2023-03-16T17:27:00.786Z,11.99
2023-03-16T17:29:32.264Z,11.97
2023-03-16T17:32:02.472Z,11.95
2023-03-16T17:34:34.165Z,11.92
2023-03-16T17:37:02.872Z,11.97
2023-03-16T17:39:33.970Z,11.79
2023-03-16T17:42:06.240Z,11.81
2023-03-16T17:44:38.148Z,11.66
2023-03-16T17:47:14.978Z,11.63
2023-03-16T17:49:49.099Z,11.63
2023-03-16T17:52:19.827Z,11.51
2023-03-16T17:54:48.605Z,11.51
2023-03-16T17:57:19.540Z,11.46
2023-03-16T17:59:49.027Z,11.43
2023-03-16T18:02:38.564Z,11.41
2023-03-16T18:05:18.256Z,11.32
2023-03-16T18:07:46.799Z,11.23
2023-03-16T18:10:17.976Z,11.26
2023-03-16T18:12:47.057Z,11.21
2023-03-16T18:15:18.327Z,11.08
2023-03-16T18:17:47.220Z,11.03
2023-03-16T18:20:24.777Z,10.91
2023-03-16T18:22:53.419Z,10.85
2023-03-16T18:25:33.569Z,10.67
2023-03-16T18:28:02.831Z,10.66
2023-03-16T18:30:32.955Z,10.57
2023-03-16T18:33:03.227Z,10.49
2023-03-16T18:35:33.459Z,10.41
2023-03-16T18:38:02.047Z,10.34
2023-03-16T18:40:30.858Z,10.31
2023-03-16T18:42:59.874Z,10.21
2023-03-16T18:45:30.126Z,10.10
2023-03-16T18:47:59.128Z,10.08
2023-03-16T18:50:30.359Z,9.94
2023-03-16T18:53:00.215Z,9.84
2023-03-16T18:55:29.486Z,9.74
2023-03-16T18:57:59.187Z,9.68
2023-03-16T19:00:29.814Z,9.68
2023-03-16T19:03:01.425Z,9.64
2023-03-16T19:05:36.104Z,9.57
2023-03-16T19:08:06.846Z,9.54
2023-03-16T19:10:37.585Z,9.49
2023-03-16T19:13:14.685Z,9.42
2023-03-16T19:15:43.488Z,9.36
2023-03-16T19:18:12.090Z,9.29
2023-03-16T19:20:41.361Z,9.26
2023-03-16T19:23:19.831Z,9.25
2023-03-16T19:25:49.166Z,9.19
2023-03-16T19:28:27.132Z,9.12
2023-03-16T19:30:56.461Z,9.11
2023-03-16T19:33:26.961Z,9.10
2023-03-16T19:35:56.111Z,9.05
2023-03-16T19:38:28.166Z,9.05
2023-03-16T19:40:58.900Z,8.99
2023-03-16T19:43:28.900Z,8.99
2023-03-16T19:45:58.989Z,8.97
2023-03-16T19:48:33.026Z,8.97
2023-03-16T19:51:02.245Z,8.95
2023-03-16T19:53:33.020Z,8.91
2023-03-16T19:56:02.058Z,8.92
2023-03-16T19:58:32.752Z,8.89
2023-03-16T20:01:01.252Z,8.85
2023-03-16T20:03:29.885Z,8.78
2023-03-16T20:05:58.160Z,8.75
2023-03-16T20:08:27.690Z,8.72
2023-03-16T20:11:02.190Z,8.71
2023-03-16T20:13:31.896Z,8.70
2023-03-16T20:16:00.646Z,8.67
2023-03-16T20:18:30.562Z,8.66
2023-03-16T20:20:59.193Z,8.67
2023-03-16T20:23:30.073Z,8.64
2023-03-16T20:26:03.236Z,8.59
2023-03-16T20:28:36.156Z,8.58
2023-03-16T20:31:08.121Z,8.55
2023-03-16T20:33:36.840Z,8.54
2023-03-16T20:36:05.201Z,8.51
2023-03-16T20:38:33.298Z,8.46
2023-03-16T20:41:03.317Z,8.45
2023-03-16T20:43:33.892Z,8.44
2023-03-16T20:46:04.234Z,8.44
2023-03-16T20:48:32.985Z,8.40
2023-03-16T20:51:01.672Z,8.40
2023-03-16T20:53:30.298Z,8.39
2023-03-16T20:55:58.767Z,8.40
2023-03-16T20:58:29.307Z,8.36
2023-03-16T21:00:58.440Z,8.36
2023-03-16T21:03:29.582Z,8.31
2023-03-16T21:06:04.813Z,8.31
2023-03-16T21:08:37.337Z,8.30
2023-03-16T21:11:25.078Z,8.30
2023-03-16T21:14:02.105Z,8.27
2023-03-16T21:16:38.753Z,8.26
2023-03-16T21:19:19.664Z,8.29
2023-03-16T21:21:54.911Z,8.27
2023-03-16T21:24:27.267Z,8.27
2023-03-16T21:26:57.953Z,8.31
2023-03-16T21:29:35.806Z,8.36
2023-03-16T21:32:23.224Z,8.45
2023-03-16T21:34:58.176Z,8.51
2023-03-16T21:37:33.506Z,8.56
2023-03-16T21:40:13.139Z,8.58
2023-03-16T21:42:49.166Z,8.62
2023-03-16T21:45:27.926Z,8.58
2023-03-16T21:48:03.280Z,8.58
2023-03-16T21:50:40.572Z,8.61
2023-03-16T21:53:26.713Z,8.62
2023-03-16T21:56:01.811Z,8.68
2023-03-16T21:58:34.927Z,8.70
2023-03-16T22:01:08.036Z,8.74
2023-03-16T22:03:51.068Z,8.74
2023-03-16T22:06:21.244Z,8.69
2023-03-16T22:08:51.359Z,8.70
2023-03-16T22:11:22.630Z,8.66
2023-03-16T22:13:53.688Z,8.68
2023-03-16T22:16:28.753Z,8.62
2023-03-16T22:18:59.809Z,8.60
2023-03-16T22:21:33.558Z,8.62
2023-03-16T22:24:06.260Z,8.62
2023-03-16T22:26:35.835Z,8.69
2023-03-16T22:29:22.143Z,8.68
2023-03-16T22:31:55.606Z,8.72
2023-03-16T22:34:31.421Z,8.68
2023-03-16T22:37:03.654Z,8.64
2023-03-16T22:39:36.628Z,8.58
2023-03-16T22:42:13.001Z,8.54
2023-03-16T22:44:44.640Z,8.54
2023-03-16T22:47:22.890Z,8.51
2023-03-16T22:49:52.902Z,8.58
2023-03-16T22:52:25.561Z,8.57
2023-03-16T22:54:56.467Z,8.54
2023-03-16T22:57:25.524Z,8.54
2023-03-16T22:59:54.453Z,8.52
2023-03-16T23:02:28.163Z,8.44
2023-03-16T23:04:57.802Z,8.44
2023-03-16T23:07:26.190Z,8.42
2023-03-16T23:09:55.767Z,8.38
2023-03-16T23:12:26.896Z,8.41
2023-03-16T23:14:57.387Z,8.43
2023-03-16T23:17:30.707Z,8.44
2023-03-16T23:19:59.429Z,8.42
2023-03-16T23:22:28.721Z,8.46
2023-03-16T23:24:59.107Z,8.51
2023-03-16T23:27:29.863Z,8.54
2023-03-16T23:29:59.466Z,8.57
2023-03-16T23:32:31.324Z,8.63
2023-03-16T23:35:02.053Z,8.61
2023-03-16T23:37:31.764Z,8.62
2023-03-16T23:40:01.418Z,8.62
2023-03-16T23:42:29.851Z,8.63
2023-03-16T23:45:01.234Z,8.65
2023-03-16T23:47:31.315Z,8.64
2023-03-16T23:50:03.832Z,8.65
2023-03-16T23:52:38.816Z,8.66
2023-03-16T23:55:19.359Z,8.69
2023-03-16T23:57:49.349Z,8.70
